Estación Meteorológica Peña el Pijo (Robertgarden) [ 08/15/18 18:32:50 CEST ]

Fecha Hora Presion(HPa) Temp (°C) Humedad % Rocio (°C) Viento ( m/s) Direccion Lluvia 1Hora(mm) Lluvia 24H(mm) LLuvia Total(mm)
2018-Aug-04 01:01:41 1014.300 20.7 50 9.9         269.36
2018-Aug-04 02:02:03 1014.100 19.1 55 9.8         269.36
2018-Aug-04 03:01:30 1014.100 17.9 60 10.0         269.36
2018-Aug-04 04:01:26 1014.000 16.8 65 10.2         269.36
2018-Aug-04 05:01:26 1013.600 16.1 68 10.2         269.36
2018-Aug-04 06:01:25 1013.400 16.4 68 10.5         269.36
2018-Aug-04 07:01:46 1013.500 16.4 69 10.7         269.36
2018-Aug-04 08:01:47 1013.700 16.9 69 11.2         269.36
2018-Aug-04 09:01:39 1013.700 22.2 59 13.8         269.36
2018-Aug-04 10:01:55 1013.800 28.0 45 14.9         269.36
2018-Aug-04 11:01:54 1013.400 31.9 35 14.4         269.36
2018-Aug-04 12:01:56 1013.600 35.5 29 14.7         269.36
2018-Aug-04 13:01:51 1013.500 36.2 25 12.8         269.36
2018-Aug-04 14:01:48 1013.500 35.8 25 12.5         269.36
2018-Aug-04 15:01:40 1013.000 37.4 15 5.7         269.36
2018-Aug-04 16:01:38 1012.700 37.8 20 11.0         269.36
2018-Aug-04 17:01:39 1012.400 37.2 22 11.8         269.36
2018-Aug-04 18:01:49 1012.100 37.3 22 11.9         269.36
2018-Aug-04 19:01:41 1012.400 32.1 28 11.2         269.36
2018-Aug-04 20:01:34 1012.600 30.4 33 12.2         269.36
2018-Aug-04 21:01:43 1013.000 28.2 38 12.5         269.36
2018-Aug-04 22:01:53 1013.300 24.9 44 11.8         269.36
2018-Aug-04 23:01:47 1013.600 21.9 51 11.3         269.36

Temperatura Máxima:37°    Temperatura Mínima:16°
Presión Máxima:1014.300 Hpa    Presión Mínima:1012.100 Hpa


Volver